sensor_id;sensor_type;location;lat;lon;timestamp;temperature;humidity
7030;DHT22;3556;53.500;10.176;2022-11-18T00:01:22;2.10;99.90
7030;DHT22;3556;53.500;10.176;2022-11-18T00:03:48;2.10;99.90
7030;DHT22;3556;53.500;10.176;2022-11-18T00:06:17;2.10;99.90
7030;DHT22;3556;53.500;10.176;2022-11-18T00:08:43;2.10;99.90
7030;DHT22;3556;53.500;10.176;2022-11-18T00:11:11;2.00;99.90
7030;DHT22;3556;53.500;10.176;2022-11-18T00:13:37;2.00;99.90
7030;DHT22;3556;53.500;10.176;2022-11-18T00:16:22;2.10;99.90
7030;DHT22;3556;53.500;10.176;2022-11-18T00:18:48;2.10;99.90
7030;DHT22;3556;53.500;10.176;2022-11-18T00:21:13;2.00;99.90
7030;DHT22;3556;53.500;10.176;2022-11-18T00:23:39;2.00;99.90
7030;DHT22;3556;53.500;10.176;2022-11-18T00:26:10;2.00;99.90
7030;DHT22;3556;53.500;10.176;2022-11-18T00:28:36;2.00;99.90
7030;DHT22;3556;53.500;10.176;2022-11-18T00:31:07;2.00;99.90
7030;DHT22;3556;53.500;10.176;2022-11-18T00:33:33;2.00;99.90
7030;DHT22;3556;53.500;10.176;2022-11-18T00:35:59;1.90;99.90
7030;DHT22;3556;53.500;10.176;2022-11-18T00:38:25;1.90;99.90
7030;DHT22;3556;53.500;10.176;2022-11-18T00:41:02;1.90;99.90
7030;DHT22;3556;53.500;10.176;2022-11-18T00:43:28;1.90;99.90
7030;DHT22;3556;53.500;10.176;2022-11-18T00:45:54;1.90;99.90
7030;DHT22;3556;53.500;10.176;2022-11-18T00:48:20;1.80;99.90
7030;DHT22;3556;53.500;10.176;2022-11-18T00:50:55;1.80;99.90
7030;DHT22;3556;53.500;10.176;2022-11-18T00:53:22;1.80;99.90
7030;DHT22;3556;53.500;10.176;2022-11-18T00:55:48;1.80;99.90
7030;DHT22;3556;53.500;10.176;2022-11-18T00:58:14;1.70;99.90
7030;DHT22;3556;53.500;10.176;2022-11-18T01:00:44;1.70;99.90
7030;DHT22;3556;53.500;10.176;2022-11-18T01:03:11;1.70;99.90
7030;DHT22;3556;53.500;10.176;2022-11-18T01:05:38;1.70;99.90
7030;DHT22;3556;53.500;10.176;2022-11-18T01:08:05;1.70;99.90
7030;DHT22;3556;53.500;10.176;2022-11-18T01:10:31;1.70;99.90
7030;DHT22;3556;53.500;10.176;2022-11-18T01:12:56;1.70;99.90
7030;DHT22;3556;53.500;10.176;2022-11-18T01:15:42;1.60;99.90
7030;DHT22;3556;53.500;10.176;2022-11-18T01:18:08;1.60;99.90
7030;DHT22;3556;53.500;10.176;2022-11-18T01:20:35;1.60;99.90
7030;DHT22;3556;53.500;10.176;2022-11-18T01:23:00;1.60;99.90
7030;DHT22;3556;53.500;10.176;2022-11-18T01:25:27;1.60;99.90
7030;DHT22;3556;53.500;10.176;2022-11-18T01:27:53;1.60;99.90
7030;DHT22;3556;53.500;10.176;2022-11-18T01:30:19;1.50;99.90
7030;DHT22;3556;53.500;10.176;2022-11-18T01:32:45;1.50;99.90
7030;DHT22;3556;53.500;10.176;2022-11-18T01:35:11;1.50;99.90
7030;DHT22;3556;53.500;10.176;2022-11-18T01:37:37;1.50;99.90
7030;DHT22;3556;53.500;10.176;2022-11-18T01:40:04;1.40;99.90
7030;DHT22;3556;53.500;10.176;2022-11-18T01:42:30;1.40;99.90
7030;DHT22;3556;53.500;10.176;2022-11-18T01:48:22;1.40;99.90
7030;DHT22;3556;53.500;10.176;2022-11-18T01:50:27;1.40;99.90
7030;DHT22;3556;53.500;10.176;2022-11-18T01:52:59;1.40;99.90
7030;DHT22;3556;53.500;10.176;2022-11-18T01:55:28;1.40;99.90
7030;DHT22;3556;53.500;10.176;2022-11-18T01:58:06;1.30;99.90
7030;DHT22;3556;53.500;10.176;2022-11-18T02:00:34;1.40;99.90
7030;DHT22;3556;53.500;10.176;2022-11-18T02:03:01;1.40;99.90
7030;DHT22;3556;53.500;10.176;2022-11-18T02:05:27;1.40;99.90
7030;DHT22;3556;53.500;10.176;2022-11-18T02:07:53;1.40;99.90
7030;DHT22;3556;53.500;10.176;2022-11-18T02:10:21;1.40;99.90
7030;DHT22;3556;53.500;10.176;2022-11-18T02:12:49;1.40;99.90
7030;DHT22;3556;53.500;10.176;2022-11-18T02:15:15;1.40;99.90
7030;DHT22;3556;53.500;10.176;2022-11-18T02:17:57;1.40;99.90
7030;DHT22;3556;53.500;10.176;2022-11-18T02:31:14;1.40;99.90
7030;DHT22;3556;53.500;10.176;2022-11-18T02:33:48;1.30;99.90
7030;DHT22;3556;53.500;10.176;2022-11-18T02:36:19;1.30;99.90
7030;DHT22;3556;53.500;10.176;2022-11-18T02:38:58;1.30;99.90
7030;DHT22;3556;53.500;10.176;2022-11-18T02:41:29;1.30;99.90
7030;DHT22;3556;53.500;10.176;2022-11-18T02:44:06;1.30;99.90
7030;DHT22;3556;53.500;10.176;2022-11-18T02:46:37;1.30;99.90
7030;DHT22;3556;53.500;10.176;2022-11-18T02:49:14;1.30;99.90
7030;DHT22;3556;53.500;10.176;2022-11-18T02:51:42;1.20;99.90
7030;DHT22;3556;53.500;10.176;2022-11-18T02:54:10;1.30;99.90
7030;DHT22;3556;53.500;10.176;2022-11-18T02:56:38;1.30;99.90
7030;DHT22;3556;53.500;10.176;2022-11-18T02:59:04;1.20;99.90
7030;DHT22;3556;53.500;10.176;2022-11-18T03:01:32;1.30;99.90
7030;DHT22;3556;53.500;10.176;2022-11-18T03:03:59;1.30;99.90
7030;DHT22;3556;53.500;10.176;2022-11-18T03:06:42;1.30;99.90
7030;DHT22;3556;53.500;10.176;2022-11-18T03:16:59;1.20;99.90
7030;DHT22;3556;53.500;10.176;2022-11-18T03:19:38;1.20;99.90
7030;DHT22;3556;53.500;10.176;2022-11-18T03:25:00;1.20;99.90
7030;DHT22;3556;53.500;10.176;2022-11-18T03:27:35;1.20;99.90
7030;DHT22;3556;53.500;10.176;2022-11-18T03:30:08;1.20;99.90
7030;DHT22;3556;53.500;10.176;2022-11-18T03:32:39;1.20;99.90
7030;DHT22;3556;53.500;10.176;2022-11-18T03:35:10;1.20;99.90
7030;DHT22;3556;53.500;10.176;2022-11-18T03:37:37;1.20;99.90
7030;DHT22;3556;53.500;10.176;2022-11-18T03:40:26;1.20;99.90
7030;DHT22;3556;53.500;10.176;2022-11-18T03:43:08;1.20;99.90
7030;DHT22;3556;53.500;10.176;2022-11-18T03:45:41;1.30;99.90
7030;DHT22;3556;53.500;10.176;2022-11-18T03:48:14;1.20;99.90
7030;DHT22;3556;53.500;10.176;2022-11-18T03:51:02;1.20;99.90
7030;DHT22;3556;53.500;10.176;2022-11-18T03:53:35;1.20;99.90
7030;DHT22;3556;53.500;10.176;2022-11-18T03:56:08;1.20;99.90
7030;DHT22;3556;53.500;10.176;2022-11-18T03:58:46;1.20;99.90
7030;DHT22;3556;53.500;10.176;2022-11-18T04:01:23;1.20;99.90
7030;DHT22;3556;53.500;10.176;2022-11-18T04:03:52;1.20;99.90
7030;DHT22;3556;53.500;10.176;2022-11-18T04:06:29;1.20;99.90
7030;DHT22;3556;53.500;10.176;2022-11-18T04:08:59;1.10;99.90
7030;DHT22;3556;53.500;10.176;2022-11-18T04:11:35;1.20;99.90
7030;DHT22;3556;53.500;10.176;2022-11-18T04:14:23;1.10;99.90
7030;DHT22;3556;53.500;10.176;2022-11-18T04:16:51;1.10;99.90
7030;DHT22;3556;53.500;10.176;2022-11-18T04:19:19;1.10;99.90
7030;DHT22;3556;53.500;10.176;2022-11-18T04:21:47;1.10;99.90
7030;DHT22;3556;53.500;10.176;2022-11-18T04:24:13;1.10;99.90
7030;DHT22;3556;53.500;10.176;2022-11-18T04:26:38;1.10;99.90
7030;DHT22;3556;53.500;10.176;2022-11-18T04:29:04;1.10;99.90
7030;DHT22;3556;53.500;10.176;2022-11-18T04:31:30;1.10;99.90
7030;DHT22;3556;53.500;10.176;2022-11-18T04:33:55;1.10;99.90
7030;DHT22;3556;53.500;10.176;2022-11-18T04:36:21;1.00;99.90
7030;DHT22;3556;53.500;10.176;2022-11-18T04:38:47;1.10;99.90
7030;DHT22;3556;53.500;10.176;2022-11-18T04:41:12;1.10;99.90
7030;DHT22;3556;53.500;10.176;2022-11-18T04:43:38;1.10;99.90
7030;DHT22;3556;53.500;10.176;2022-11-18T04:46:03;1.10;99.90
7030;DHT22;3556;53.500;10.176;2022-11-18T04:48:29;1.10;99.90
7030;DHT22;3556;53.500;10.176;2022-11-18T04:51:01;1.10;99.90
7030;DHT22;3556;53.500;10.176;2022-11-18T04:53:27;1.00;99.90
7030;DHT22;3556;53.500;10.176;2022-11-18T04:55:52;1.00;99.90
7030;DHT22;3556;53.500;10.176;2022-11-18T04:58:18;1.00;99.90
7030;DHT22;3556;53.500;10.176;2022-11-18T05:00:44;1.00;99.90
7030;DHT22;3556;53.500;10.176;2022-11-18T05:03:09;1.00;99.90
7030;DHT22;3556;53.500;10.176;2022-11-18T05:05:35;1.00;99.90
7030;DHT22;3556;53.500;10.176;2022-11-18T05:08:00;1.00;99.90
7030;DHT22;3556;53.500;10.176;2022-11-18T05:10:26;1.00;99.90
7030;DHT22;3556;53.500;10.176;2022-11-18T05:12:52;1.00;99.90
7030;DHT22;3556;53.500;10.176;2022-11-18T05:15:19;1.00;99.90
7030;DHT22;3556;53.500;10.176;2022-11-18T05:17:46;1.00;99.90
7030;DHT22;3556;53.500;10.176;2022-11-18T05:20:12;1.00;99.90
7030;DHT22;3556;53.500;10.176;2022-11-18T05:22:38;1.00;99.90
7030;DHT22;3556;53.500;10.176;2022-11-18T05:25:04;1.00;99.90
7030;DHT22;3556;53.500;10.176;2022-11-18T05:27:30;1.00;99.90
7030;DHT22;3556;53.500;10.176;2022-11-18T05:29:56;1.00;99.90
7030;DHT22;3556;53.500;10.176;2022-11-18T05:32:22;1.00;99.90
7030;DHT22;3556;53.500;10.176;2022-11-18T05:34:47;0.90;99.90
7030;DHT22;3556;53.500;10.176;2022-11-18T05:37:13;0.90;99.90
7030;DHT22;3556;53.500;10.176;2022-11-18T05:39:38;0.90;99.90
7030;DHT22;3556;53.500;10.176;2022-11-18T05:42:04;0.90;99.90
7030;DHT22;3556;53.500;10.176;2022-11-18T05:44:48;0.90;99.90
7030;DHT22;3556;53.500;10.176;2022-11-18T05:47:16;0.90;99.90
7030;DHT22;3556;53.500;10.176;2022-11-18T05:49:42;0.90;99.90
7030;DHT22;3556;53.500;10.176;2022-11-18T05:52:07;0.90;99.90
7030;DHT22;3556;53.500;10.176;2022-11-18T05:54:33;0.80;99.90
7030;DHT22;3556;53.500;10.176;2022-11-18T05:56:59;0.80;99.90
7030;DHT22;3556;53.500;10.176;2022-11-18T05:59:24;0.80;99.90
7030;DHT22;3556;53.500;10.176;2022-11-18T06:04:41;0.80;99.90
7030;DHT22;3556;53.500;10.176;2022-11-18T06:07:24;0.80;99.90
7030;DHT22;3556;53.500;10.176;2022-11-18T06:09:53;0.80;99.90
7030;DHT22;3556;53.500;10.176;2022-11-18T06:12:22;0.80;99.90
7030;DHT22;3556;53.500;10.176;2022-11-18T06:14:59;0.80;99.90
7030;DHT22;3556;53.500;10.176;2022-11-18T06:18:14;0.70;99.90
7030;DHT22;3556;53.500;10.176;2022-11-18T06:20:33;0.80;99.90
7030;DHT22;3556;53.500;10.176;2022-11-18T06:22:59;0.70;99.90
7030;DHT22;3556;53.500;10.176;2022-11-18T06:25:27;0.70;99.90
7030;DHT22;3556;53.500;10.176;2022-11-18T06:27:55;0.70;99.90
7030;DHT22;3556;53.500;10.176;2022-11-18T06:30:21;0.70;99.90
7030;DHT22;3556;53.500;10.176;2022-11-18T06:32:47;0.70;99.90
7030;DHT22;3556;53.500;10.176;2022-11-18T06:35:13;0.70;99.90
7030;DHT22;3556;53.500;10.176;2022-11-18T06:37:39;0.70;99.90
7030;DHT22;3556;53.500;10.176;2022-11-18T06:40:05;0.70;99.90
7030;DHT22;3556;53.500;10.176;2022-11-18T06:42:31;0.70;99.90
7030;DHT22;3556;53.500;10.176;2022-11-18T06:45:15;0.70;99.90
7030;DHT22;3556;53.500;10.176;2022-11-18T06:47:41;0.70;99.90
7030;DHT22;3556;53.500;10.176;2022-11-18T06:50:07;0.60;99.90
7030;DHT22;3556;53.500;10.176;2022-11-18T06:52:32;0.60;99.90
7030;DHT22;3556;53.500;10.176;2022-11-18T06:54:58;0.60;99.90
7030;DHT22;3556;53.500;10.176;2022-11-18T06:57:24;0.60;99.90
7030;DHT22;3556;53.500;10.176;2022-11-18T06:59:49;0.60;99.90
7030;DHT22;3556;53.500;10.176;2022-11-18T07:02:15;0.60;99.90
7030;DHT22;3556;53.500;10.176;2022-11-18T07:04:46;0.60;99.90
7030;DHT22;3556;53.500;10.176;2022-11-18T07:07:11;0.60;99.90
7030;DHT22;3556;53.500;10.176;2022-11-18T07:09:37;0.70;99.90
7030;DHT22;3556;53.500;10.176;2022-11-18T07:12:03;0.60;99.90
7030;DHT22;3556;53.500;10.176;2022-11-18T07:14:30;0.60;99.90
7030;DHT22;3556;53.500;10.176;2022-11-18T07:16:56;0.60;99.90
7030;DHT22;3556;53.500;10.176;2022-11-18T07:19:21;0.60;99.90
7030;DHT22;3556;53.500;10.176;2022-11-18T07:21:47;0.60;99.90
7030;DHT22;3556;53.500;10.176;2022-11-18T07:24:14;0.60;99.90
7030;DHT22;3556;53.500;10.176;2022-11-18T07:26:41;0.60;99.90
7030;DHT22;3556;53.500;10.176;2022-11-18T07:29:07;0.60;99.90
7030;DHT22;3556;53.500;10.176;2022-11-18T07:31:32;0.60;99.90
7030;DHT22;3556;53.500;10.176;2022-11-18T07:34:02;0.70;99.90
7030;DHT22;3556;53.500;10.176;2022-11-18T07:36:28;0.70;99.90
7030;DHT22;3556;53.500;10.176;2022-11-18T07:38:56;0.60;99.90
7030;DHT22;3556;53.500;10.176;2022-11-18T07:41:26;0.60;99.90
7030;DHT22;3556;53.500;10.176;2022-11-18T07:43:54;0.70;99.90
7030;DHT22;3556;53.500;10.176;2022-11-18T07:46:25;0.70;99.90
7030;DHT22;3556;53.500;10.176;2022-11-18T07:48:53;0.70;99.90
7030;DHT22;3556;53.500;10.176;2022-11-18T07:51:22;0.60;99.90
7030;DHT22;3556;53.500;10.176;2022-11-18T07:53:47;0.60;99.90
7030;DHT22;3556;53.500;10.176;2022-11-18T07:56:14;0.60;99.90
7030;DHT22;3556;53.500;10.176;2022-11-18T07:58:40;0.60;99.90
7030;DHT22;3556;53.500;10.176;2022-11-18T08:01:11;0.60;99.90
7030;DHT22;3556;53.500;10.176;2022-11-18T08:03:37;0.60;99.90
7030;DHT22;3556;53.500;10.176;2022-11-18T08:06:05;0.60;99.90
7030;DHT22;3556;53.500;10.176;2022-11-18T08:08:30;0.60;99.90
7030;DHT22;3556;53.500;10.176;2022-11-18T08:10:58;0.60;99.90
7030;DHT22;3556;53.500;10.176;2022-11-18T08:13:24;0.60;99.90
7030;DHT22;3556;53.500;10.176;2022-11-18T08:15:50;0.60;99.90
7030;DHT22;3556;53.500;10.176;2022-11-18T08:18:16;0.60;99.90
7030;DHT22;3556;53.500;10.176;2022-11-18T08:20:42;0.60;99.90
7030;DHT22;3556;53.500;10.176;2022-11-18T08:23:09;0.60;99.90
7030;DHT22;3556;53.500;10.176;2022-11-18T08:25:35;0.60;99.90
7030;DHT22;3556;53.500;10.176;2022-11-18T08:28:01;0.60;99.90
7030;DHT22;3556;53.500;10.176;2022-11-18T08:30:26;0.60;99.90
7030;DHT22;3556;53.500;10.176;2022-11-18T08:32:52;0.60;99.90
7030;DHT22;3556;53.500;10.176;2022-11-18T08:35:18;0.60;99.90
7030;DHT22;3556;53.500;10.176;2022-11-18T08:37:43;0.60;99.90
7030;DHT22;3556;53.500;10.176;2022-11-18T08:40:09;0.60;99.90
7030;DHT22;3556;53.500;10.176;2022-11-18T08:42:35;0.60;99.90
7030;DHT22;3556;53.500;10.176;2022-11-18T08:45:05;0.60;99.90
7030;DHT22;3556;53.500;10.176;2022-11-18T08:47:35;0.60;99.90
7030;DHT22;3556;53.500;10.176;2022-11-18T08:50:02;0.60;99.90
7030;DHT22;3556;53.500;10.176;2022-11-18T08:52:28;0.70;99.90
7030;DHT22;3556;53.500;10.176;2022-11-18T08:54:53;0.60;99.90
7030;DHT22;3556;53.500;10.176;2022-11-18T08:57:19;0.70;99.90
7030;DHT22;3556;53.500;10.176;2022-11-18T08:59:45;0.70;99.90
7030;DHT22;3556;53.500;10.176;2022-11-18T09:02:15;0.80;99.90
7030;DHT22;3556;53.500;10.176;2022-11-18T09:04:41;0.80;99.90
7030;DHT22;3556;53.500;10.176;2022-11-18T09:07:06;0.80;99.90
7030;DHT22;3556;53.500;10.176;2022-11-18T09:09:32;0.80;99.90
7030;DHT22;3556;53.500;10.176;2022-11-18T09:11:58;0.70;99.90
7030;DHT22;3556;53.500;10.176;2022-11-18T09:14:23;0.80;99.90
7030;DHT22;3556;53.500;10.176;2022-11-18T09:16:49;0.70;99.90
7030;DHT22;3556;53.500;10.176;2022-11-18T09:19:15;0.70;99.90
7030;DHT22;3556;53.500;10.176;2022-11-18T09:21:41;0.80;99.90
7030;DHT22;3556;53.500;10.176;2022-11-18T09:24:07;0.80;99.90
7030;DHT22;3556;53.500;10.176;2022-11-18T09:26:33;0.80;99.90
7030;DHT22;3556;53.500;10.176;2022-11-18T09:29:00;0.80;99.90
7030;DHT22;3556;53.500;10.176;2022-11-18T09:31:25;0.80;99.90
7030;DHT22;3556;53.500;10.176;2022-11-18T09:33:51;0.80;99.90
7030;DHT22;3556;53.500;10.176;2022-11-18T09:36:24;0.80;99.90
7030;DHT22;3556;53.500;10.176;2022-11-18T09:38:50;0.80;99.90
7030;DHT22;3556;53.500;10.176;2022-11-18T09:49:36;0.90;99.90
7030;DHT22;3556;53.500;10.176;2022-11-18T09:52:19;1.00;99.90
7030;DHT22;3556;53.500;10.176;2022-11-18T09:54:46;1.00;99.90
7030;DHT22;3556;53.500;10.176;2022-11-18T09:59:39;1.00;99.90
7030;DHT22;3556;53.500;10.176;2022-11-18T10:04:50;1.10;99.90
7030;DHT22;3556;53.500;10.176;2022-11-18T10:07:21;1.10;99.90
7030;DHT22;3556;53.500;10.176;2022-11-18T10:09:52;1.10;99.90
7030;DHT22;3556;53.500;10.176;2022-11-18T10:15:35;1.10;99.90
7030;DHT22;3556;53.500;10.176;2022-11-18T10:20:55;1.20;99.90
7030;DHT22;3556;53.500;10.176;2022-11-18T10:23:34;1.20;99.90
7030;DHT22;3556;53.500;10.176;2022-11-18T10:26:03;1.20;99.90
7030;DHT22;3556;53.500;10.176;2022-11-18T10:28:29;1.30;99.90
7030;DHT22;3556;53.500;10.176;2022-11-18T10:31:07;1.30;99.90
7030;DHT22;3556;53.500;10.176;2022-11-18T10:33:34;1.30;99.90
7030;DHT22;3556;53.500;10.176;2022-11-18T10:36:28;1.30;99.90
7030;DHT22;3556;53.500;10.176;2022-11-18T10:39:13;1.30;99.90
7030;DHT22;3556;53.500;10.176;2022-11-18T10:41:50;1.40;99.90
7030;DHT22;3556;53.500;10.176;2022-11-18T10:44:35;1.40;99.90
7030;DHT22;3556;53.500;10.176;2022-11-18T10:47:24;1.50;99.90
7030;DHT22;3556;53.500;10.176;2022-11-18T10:49:52;1.50;99.90
7030;DHT22;3556;53.500;10.176;2022-11-18T10:52:18;1.60;99.90
7030;DHT22;3556;53.500;10.176;2022-11-18T10:54:44;1.60;99.90
7030;DHT22;3556;53.500;10.176;2022-11-18T10:57:38;1.60;99.90
7030;DHT22;3556;53.500;10.176;2022-11-18T11:02:57;1.70;99.90
7030;DHT22;3556;53.500;10.176;2022-11-18T11:05:24;1.70;99.90
7030;DHT22;3556;53.500;10.176;2022-11-18T11:08:01;1.70;99.90
7030;DHT22;3556;53.500;10.176;2022-11-18T11:10:27;1.80;99.90
7030;DHT22;3556;53.500;10.176;2022-11-18T11:13:03;1.70;99.90
7030;DHT22;3556;53.500;10.176;2022-11-18T11:15:40;1.80;99.90
7030;DHT22;3556;53.500;10.176;2022-11-18T11:18:19;1.80;99.90
7030;DHT22;3556;53.500;10.176;2022-11-18T11:21:11;1.70;99.90
7030;DHT22;3556;53.500;10.176;2022-11-18T11:23:37;1.70;99.90
7030;DHT22;3556;53.500;10.176;2022-11-18T11:28:45;1.70;99.90
7030;DHT22;3556;53.500;10.176;2022-11-18T11:37:19;1.70;99.90
7030;DHT22;3556;53.500;10.176;2022-11-18T11:45:34;1.90;99.90
7030;DHT22;3556;53.500;10.176;2022-11-18T11:50:58;2.00;99.90
7030;DHT22;3556;53.500;10.176;2022-11-18T11:56:29;2.00;99.90
7030;DHT22;3556;53.500;10.176;2022-11-18T11:59:17;2.10;99.90
7030;DHT22;3556;53.500;10.176;2022-11-18T12:06:58;2.10;99.90
7030;DHT22;3556;53.500;10.176;2022-11-18T12:12:24;2.10;99.90
7030;DHT22;3556;53.500;10.176;2022-11-18T12:15:18;2.10;99.90
7030;DHT22;3556;53.500;10.176;2022-11-18T12:20:50;2.20;99.90
7030;DHT22;3556;53.500;10.176;2022-11-18T12:28:32;2.20;99.90
7030;DHT22;3556;53.500;10.176;2022-11-18T12:33:53;2.30;99.90
7030;DHT22;3556;53.500;10.176;2022-11-18T12:36:37;2.20;99.90
7030;DHT22;3556;53.500;10.176;2022-11-18T12:42:01;2.20;99.90
7030;DHT22;3556;53.500;10.176;2022-11-18T12:44:51;2.20;99.90
7030;DHT22;3556;53.500;10.176;2022-11-18T12:55:18;2.20;99.90
7030;DHT22;3556;53.500;10.176;2022-11-18T12:57:45;2.20;99.90
7030;DHT22;3556;53.500;10.176;2022-11-18T13:02:50;2.30;99.90
7030;DHT22;3556;53.500;10.176;2022-11-18T13:05:25;2.20;99.90
7030;DHT22;3556;53.500;10.176;2022-11-18T13:08:04;2.20;99.90
7030;DHT22;3556;53.500;10.176;2022-11-18T13:10:55;2.20;99.90
7030;DHT22;3556;53.500;10.176;2022-11-18T13:13:40;2.10;99.90
7030;DHT22;3556;53.500;10.176;2022-11-18T13:16:21;2.10;99.90
7030;DHT22;3556;53.500;10.176;2022-11-18T13:19:06;2.00;99.90
7030;DHT22;3556;53.500;10.176;2022-11-18T13:21:32;2.00;99.90
7030;DHT22;3556;53.500;10.176;2022-11-18T13:24:21;1.90;99.90
7030;DHT22;3556;53.500;10.176;2022-11-18T13:26:52;1.90;99.90
7030;DHT22;3556;53.500;10.176;2022-11-18T13:32:25;1.80;99.90
7030;DHT22;3556;53.500;10.176;2022-11-18T13:37:48;1.70;99.90
7030;DHT22;3556;53.500;10.176;2022-11-18T13:40:28;1.60;99.90
7030;DHT22;3556;53.500;10.176;2022-11-18T13:42:54;1.60;99.90
7030;DHT22;3556;53.500;10.176;2022-11-18T13:45:24;1.50;99.90
7030;DHT22;3556;53.500;10.176;2022-11-18T13:47:58;1.50;99.90
7030;DHT22;3556;53.500;10.176;2022-11-18T13:55:23;1.40;99.90
7030;DHT22;3556;53.500;10.176;2022-11-18T14:01:15;1.30;99.90
7030;DHT22;3556;53.500;10.176;2022-11-18T14:03:51;1.30;99.90
7030;DHT22;3556;53.500;10.176;2022-11-18T14:06:27;1.30;99.90
7030;DHT22;3556;53.500;10.176;2022-11-18T14:11:40;1.20;99.90
7030;DHT22;3556;53.500;10.176;2022-11-18T14:14:11;1.10;99.90
7030;DHT22;3556;53.500;10.176;2022-11-18T14:16:40;1.00;99.90
7030;DHT22;3556;53.500;10.176;2022-11-18T14:19:27;1.00;99.90
7030;DHT22;3556;53.500;10.176;2022-11-18T14:22:01;0.90;99.90
7030;DHT22;3556;53.500;10.176;2022-11-18T14:24:27;0.90;99.90
7030;DHT22;3556;53.500;10.176;2022-11-18T14:26:52;0.90;99.90
7030;DHT22;3556;53.500;10.176;2022-11-18T14:29:18;0.90;99.90
7030;DHT22;3556;53.500;10.176;2022-11-18T14:34:35;0.90;99.90
7030;DHT22;3556;53.500;10.176;2022-11-18T14:37:05;0.80;99.90
7030;DHT22;3556;53.500;10.176;2022-11-18T14:39:34;0.80;99.90
7030;DHT22;3556;53.500;10.176;2022-11-18T14:42:01;0.70;99.90
7030;DHT22;3556;53.500;10.176;2022-11-18T14:44:27;0.70;99.90
7030;DHT22;3556;53.500;10.176;2022-11-18T14:47:05;0.70;99.90
7030;DHT22;3556;53.500;10.176;2022-11-18T14:49:35;0.60;99.90
7030;DHT22;3556;53.500;10.176;2022-11-18T14:52:01;0.60;99.90
7030;DHT22;3556;53.500;10.176;2022-11-18T14:54:28;0.60;99.90
7030;DHT22;3556;53.500;10.176;2022-11-18T14:57:00;0.50;99.90
7030;DHT22;3556;53.500;10.176;2022-11-18T14:59:26;0.50;99.90
7030;DHT22;3556;53.500;10.176;2022-11-18T15:01:52;0.40;99.90
7030;DHT22;3556;53.500;10.176;2022-11-18T15:04:17;0.40;99.90
7030;DHT22;3556;53.500;10.176;2022-11-18T15:06:45;0.30;99.90
7030;DHT22;3556;53.500;10.176;2022-11-18T15:09:11;0.30;99.90
7030;DHT22;3556;53.500;10.176;2022-11-18T15:11:37;0.20;99.90
7030;DHT22;3556;53.500;10.176;2022-11-18T15:14:03;0.20;99.90
7030;DHT22;3556;53.500;10.176;2022-11-18T15:16:31;0.10;99.90
7030;DHT22;3556;53.500;10.176;2022-11-18T15:18:59;0.00;99.90
7030;DHT22;3556;53.500;10.176;2022-11-18T15:21:25;0.00;99.90
7030;DHT22;3556;53.500;10.176;2022-11-18T15:23:51;-0.10;99.90
7030;DHT22;3556;53.500;10.176;2022-11-18T15:28:43;-0.20;99.90
7030;DHT22;3556;53.500;10.176;2022-11-18T15:31:09;-0.30;99.90
7030;DHT22;3556;53.500;10.176;2022-11-18T15:33:35;-0.40;99.90
7030;DHT22;3556;53.500;10.176;2022-11-18T15:36:00;-0.40;99.90
7030;DHT22;3556;53.500;10.176;2022-11-18T15:38:26;-0.50;99.90
7030;DHT22;3556;53.500;10.176;2022-11-18T15:40:52;-0.50;99.90
7030;DHT22;3556;53.500;10.176;2022-11-18T15:43:17;-0.60;99.90
7030;DHT22;3556;53.500;10.176;2022-11-18T15:45:43;-0.60;99.90
7030;DHT22;3556;53.500;10.176;2022-11-18T15:48:08;-0.70;99.90
7030;DHT22;3556;53.500;10.176;2022-11-18T15:50:34;-0.70;99.90
7030;DHT22;3556;53.500;10.176;2022-11-18T15:53:00;-0.80;99.90
7030;DHT22;3556;53.500;10.176;2022-11-18T15:55:26;-0.80;99.90
7030;DHT22;3556;53.500;10.176;2022-11-18T15:57:51;-0.90;99.90
7030;DHT22;3556;53.500;10.176;2022-11-18T16:00:17;-0.90;99.90
7030;DHT22;3556;53.500;10.176;2022-11-18T16:02:43;-0.90;99.90
7030;DHT22;3556;53.500;10.176;2022-11-18T16:05:08;-1.00;99.90
7030;DHT22;3556;53.500;10.176;2022-11-18T16:07:34;-1.10;99.90
7030;DHT22;3556;53.500;10.176;2022-11-18T16:10:00;-1.10;99.90
7030;DHT22;3556;53.500;10.176;2022-11-18T16:12:44;-1.10;99.90
7030;DHT22;3556;53.500;10.176;2022-11-18T16:15:14;-1.20;99.90
7030;DHT22;3556;53.500;10.176;2022-11-18T16:17:59;-1.20;99.90
7030;DHT22;3556;53.500;10.176;2022-11-18T16:20:25;-1.20;99.90
7030;DHT22;3556;53.500;10.176;2022-11-18T16:22:51;-1.20;99.90
7030;DHT22;3556;53.500;10.176;2022-11-18T16:25:19;-1.20;99.90
7030;DHT22;3556;53.500;10.176;2022-11-18T16:27:45;-1.20;99.90
7030;DHT22;3556;53.500;10.176;2022-11-18T16:30:11;-1.20;99.90
7030;DHT22;3556;53.500;10.176;2022-11-18T16:32:57;-1.20;99.90
7030;DHT22;3556;53.500;10.176;2022-11-18T16:35:23;-1.20;99.90
7030;DHT22;3556;53.500;10.176;2022-11-18T16:37:49;-1.20;99.90
7030;DHT22;3556;53.500;10.176;2022-11-18T16:40:15;-1.20;99.90
7030;DHT22;3556;53.500;10.176;2022-11-18T16:42:41;-1.20;99.90
7030;DHT22;3556;53.500;10.176;2022-11-18T16:45:06;-1.20;99.90
7030;DHT22;3556;53.500;10.176;2022-11-18T16:47:32;-1.20;99.90
7030;DHT22;3556;53.500;10.176;2022-11-18T16:49:58;-1.20;99.90
7030;DHT22;3556;53.500;10.176;2022-11-18T16:52:23;-1.20;99.90
7030;DHT22;3556;53.500;10.176;2022-11-18T16:54:49;-1.20;99.90
7030;DHT22;3556;53.500;10.176;2022-11-18T16:57:16;-1.30;99.90
7030;DHT22;3556;53.500;10.176;2022-11-18T16:59:42;-1.30;99.90
7030;DHT22;3556;53.500;10.176;2022-11-18T17:02:11;-1.30;99.90
7030;DHT22;3556;53.500;10.176;2022-11-18T17:04:37;-1.30;99.90
7030;DHT22;3556;53.500;10.176;2022-11-18T17:07:03;-1.40;99.90
7030;DHT22;3556;53.500;10.176;2022-11-18T17:09:29;-1.40;99.90
7030;DHT22;3556;53.500;10.176;2022-11-18T17:11:55;-1.50;99.90
7030;DHT22;3556;53.500;10.176;2022-11-18T17:14:22;-1.50;99.90
7030;DHT22;3556;53.500;10.176;2022-11-18T17:16:48;-1.50;99.90
7030;DHT22;3556;53.500;10.176;2022-11-18T17:19:16;-1.50;99.90
7030;DHT22;3556;53.500;10.176;2022-11-18T17:21:43;-1.60;99.90
7030;DHT22;3556;53.500;10.176;2022-11-18T17:24:09;-1.60;99.90
7030;DHT22;3556;53.500;10.176;2022-11-18T17:26:36;-1.70;99.90
7030;DHT22;3556;53.500;10.176;2022-11-18T17:29:02;-1.70;99.90
7030;DHT22;3556;53.500;10.176;2022-11-18T17:31:27;-1.70;99.90
7030;DHT22;3556;53.500;10.176;2022-11-18T17:33:54;-1.80;99.90
7030;DHT22;3556;53.500;10.176;2022-11-18T17:36:25;-1.80;99.90
7030;DHT22;3556;53.500;10.176;2022-11-18T17:38:54;-1.90;99.90
7030;DHT22;3556;53.500;10.176;2022-11-18T17:41:23;-1.90;99.90
7030;DHT22;3556;53.500;10.176;2022-11-18T17:44:08;-2.00;99.90
7030;DHT22;3556;53.500;10.176;2022-11-18T17:46:34;-2.00;99.90
7030;DHT22;3556;53.500;10.176;2022-11-18T17:49:02;-2.10;99.90
7030;DHT22;3556;53.500;10.176;2022-11-18T17:51:29;-2.10;99.90
7030;DHT22;3556;53.500;10.176;2022-11-18T17:53:55;-2.10;99.90
7030;DHT22;3556;53.500;10.176;2022-11-18T17:56:21;-2.10;99.90
7030;DHT22;3556;53.500;10.176;2022-11-18T17:58:48;-2.10;99.90
7030;DHT22;3556;53.500;10.176;2022-11-18T18:01:15;-2.00;99.90
7030;DHT22;3556;53.500;10.176;2022-11-18T18:03:41;-2.00;99.90
7030;DHT22;3556;53.500;10.176;2022-11-18T18:06:08;-1.90;99.90
7030;DHT22;3556;53.500;10.176;2022-11-18T18:08:35;-1.80;99.90
7030;DHT22;3556;53.500;10.176;2022-11-18T18:11:02;-1.80;99.90
7030;DHT22;3556;53.500;10.176;2022-11-18T18:13:28;-1.80;99.90
7030;DHT22;3556;53.500;10.176;2022-11-18T18:16:12;-1.80;99.90
7030;DHT22;3556;53.500;10.176;2022-11-18T18:18:38;-1.70;99.90